Time,TemperatureF,DewpointF,PressureIn,WindDirection,WindDirectionDegrees,WindSpeedMPH,WindSpeedGustMPH,Humidity,HourlyPrecipIn,Conditions,Clouds,dailyrainin,SolarRadiationWatts/m^2,SoftwareType,DateUTC
2013-04-13 00:00:00,42.8,31.9,29.86,ESE,114,1.0,2.0,65,0.00,,---,0.00,0.00,VWS V14.01,2013-04-13 05:00:00,
2013-04-13 00:03:00,42.8,31.9,29.86,ESE,106,1.0,2.0,65,0.00,,---,0.00,0.00,VWS V14.01,2013-04-13 05:03:00,
2013-04-13 00:05:00,42.9,31.6,29.86,ESE,110,2.0,2.0,64,0.00,,---,0.00,0.00,VWS V14.01,2013-04-13 05:05:00,
2013-04-13 00:08:00,42.9,31.6,29.86,East,99,2.0,2.0,64,0.00,,---,0.00,0.00,VWS V14.01,2013-04-13 05:08:00,
2013-04-13 00:10:00,42.9,31.6,29.86,ESE,110,2.0,2.0,64,0.00,,---,0.00,0.00,VWS V14.01,2013-04-13 05:10:00,
2013-04-13 00:13:00,42.9,31.6,29.86,East,82,3.0,3.0,64,0.00,,---,0.00,0.00,VWS V14.01,2013-04-13 05:13:00,
2013-04-13 00:15:00,42.8,31.9,29.86,ENE,72,3.0,3.0,65,0.00,,---,0.00,0.00,VWS V14.01,2013-04-13 05:15:00,
2013-04-13 00:18:00,42.8,31.5,29.86,ESE,107,2.0,3.0,64,0.00,,---,0.00,0.00,VWS V14.01,2013-04-13 05:18:00,
2013-04-13 00:20:00,42.8,31.5,29.86,SE,124,3.0,3.0,64,0.00,,---,0.00,0.00,VWS V14.01,2013-04-13 05:20:00,
2013-04-13 00:23:00,42.8,31.5,29.86,ENE,62,3.0,5.0,64,0.00,,---,0.00,0.00,VWS V14.01,2013-04-13 05:23:00,
2013-04-13 00:25:00,42.6,31.7,29.86,ENE,58,3.0,5.0,65,0.00,,---,0.00,0.00,VWS V14.01,2013-04-13 05:25:00,
2013-04-13 00:28:00,42.6,31.7,29.86,ENE,65,0.0,3.0,65,0.00,,---,0.00,0.00,VWS V14.01,2013-04-13 05:28:00,
2013-04-13 00:30:00,42.5,31.6,29.87,ENE,59,2.0,3.0,65,0.00,,---,0.00,0.00,VWS V14.01,2013-04-13 05:30:00,
2013-04-13 00:33:00,42.3,31.4,29.87,ENE,64,3.0,3.0,65,0.00,,---,0.00,0.00,VWS V14.01,2013-04-13 05:33:00,
2013-04-13 00:35:00,42.3,31.4,29.87,ENE,58,3.0,3.0,65,0.00,,---,0.00,0.00,VWS V14.01,2013-04-13 05:35:00,
2013-04-13 00:39:00,42.5,31.6,29.87,NE,56,2.0,3.0,65,0.00,,---,0.00,0.00,VWS V14.01,2013-04-13 05:39:00,
2013-04-13 00:40:00,42.5,31.6,29.87,ENE,59,3.0,3.0,65,0.00,,---,0.00,0.00,VWS V14.01,2013-04-13 05:40:00,
2013-04-13 00:44:00,42.3,31.4,29.87,ENE,64,3.0,4.0,65,0.00,,---,0.00,0.00,VWS V14.01,2013-04-13 05:44:00,
2013-04-13 00:45:00,42.3,31.4,29.87,ENE,64,3.0,4.0,65,0.00,,---,0.00,0.00,VWS V14.01,2013-04-13 05:45:00,
2013-04-13 00:49:00,42.3,31.4,29.87,ENE,64,3.0,3.0,65,0.00,,---,0.00,0.00,VWS V14.01,2013-04-13 05:49:00,
2013-04-13 00:50:00,42.3,31.4,29.87,ENE,61,3.0,3.0,65,0.00,,---,0.00,0.00,VWS V14.01,2013-04-13 05:50:00,
2013-04-13 00:54:00,42.3,31.4,29.87,ENE,65,2.0,3.0,65,0.00,,---,0.00,0.00,VWS V14.01,2013-04-13 05:54:00,
2013-04-13 00:55:00,42.3,31.0,29.87,ENE,61,3.0,3.0,64,0.00,,---,0.00,0.00,VWS V14.01,2013-04-13 05:55:00,
2013-04-13 00:59:00,42.5,30.8,29.87,ENE,64,2.0,3.0,63,0.00,,---,0.00,0.00,VWS V14.01,2013-04-13 05:59:00,
2013-04-13 01:00:00,42.6,30.9,29.87,ENE,62,1.0,3.0,63,0.00,,---,0.00,0.00,VWS V14.01,2013-04-13 06:00:00,
2013-04-13 01:04:00,42.5,30.4,29.87,ENE,62,1.0,2.0,62,0.00,,---,0.00,0.00,VWS V14.01,2013-04-13 06:04:00,
2013-04-13 01:05:00,42.5,30.4,29.87,ENE,62,1.0,2.0,62,0.00,,---,0.00,0.00,VWS V14.01,2013-04-13 06:05:00,
2013-04-13 01:09:00,42.3,31.4,29.87,ENE,64,2.0,3.0,65,0.00,,---,0.00,0.00,VWS V14.01,2013-04-13 06:09:00,
2013-04-13 01:10:00,42.2,31.3,29.87,ENE,59,3.0,3.0,65,0.00,,---,0.00,0.00,VWS V14.01,2013-04-13 06:10:00,
2013-04-13 01:15:00,41.5,31.0,29.87,ENE,62,5.0,5.0,66,0.00,,---,0.00,0.00,VWS V14.01,2013-04-13 06:15:00,
2013-04-13 01:20:00,41.1,30.2,29.87,ENE,68,3.0,5.0,65,0.00,,---,0.00,0.00,VWS V14.01,2013-04-13 06:20:00,
2013-04-13 01:25:00,41.5,29.9,29.87,ENE,62,5.0,5.0,63,0.00,,---,0.00,0.00,VWS V14.01,2013-04-13 06:25:00,
2013-04-13 01:30:00,41.9,29.9,29.87,ENE,61,4.0,5.0,62,0.00,,---,0.00,0.00,VWS V14.01,2013-04-13 06:30:00,
2013-04-13 01:35:00,42.2,30.1,29.87,ENE,62,3.0,5.0,62,0.00,,---,0.00,0.00,VWS V14.01,2013-04-13 06:35:00,
2013-04-13 01:40:00,42.1,30.4,29.87,ENE,64,3.0,5.0,63,0.00,,---,0.00,0.00,VWS V14.01,2013-04-13 06:40:00,
2013-04-13 01:45:00,42.1,30.4,29.86,ENE,59,2.0,5.0,63,0.00,,---,0.00,0.00,VWS V14.01,2013-04-13 06:45:00,
2013-04-13 01:50:00,41.8,30.5,29.86,East,97,2.0,3.0,64,0.00,,---,0.00,0.00,VWS V14.01,2013-04-13 06:50:00,
2013-04-13 01:55:00,41.3,30.4,29.86,ESE,102,2.0,5.0,65,0.00,,---,0.00,0.00,VWS V14.01,2013-04-13 06:55:00,
2013-04-13 02:00:00,41.2,30.3,29.86,SE,128,2.0,4.0,65,0.00,,---,0.00,0.00,VWS V14.01,2013-04-13 07:00:00,
2013-04-13 02:01:00,41.2,30.3,29.86,SSE,148,3.0,3.0,65,0.00,,---,0.00,0.00,VWS V14.01,2013-04-13 07:01:00,
2013-04-13 02:05:00,41.1,30.2,29.86,SW,234,4.0,5.0,65,0.00,,---,0.00,0.00,VWS V14.01,2013-04-13 07:05:00,
2013-04-13 02:06:00,41.1,30.2,29.86,SE,141,5.0,5.0,65,0.00,,---,0.00,0.00,VWS V14.01,2013-04-13 07:06:00,
2013-04-13 02:10:00,40.3,30.2,29.86,SE,145,5.0,6.0,67,0.00,,---,0.00,0.00,VWS V14.01,2013-04-13 07:10:00,
2013-04-13 02:12:00,40.1,30.4,29.86,SSE,165,5.0,5.0,68,0.00,,---,0.00,0.00,VWS V14.01,2013-04-13 07:12:00,
2013-04-13 02:15:00,39.8,30.5,29.86,SSE,151,5.0,6.0,69,0.00,,---,0.00,0.00,VWS V14.01,2013-04-13 07:15:00,
2013-04-13 02:17:00,39.8,30.5,29.86,SSE,148,4.0,5.0,69,0.00,,---,0.00,0.00,VWS V14.01,2013-04-13 07:17:00,
2013-04-13 02:20:00,39.3,30.4,29.86,SSE,147,4.0,5.0,70,0.00,,---,0.00,0.00,VWS V14.01,2013-04-13 07:20:00,
2013-04-13 02:22:00,39.1,30.5,29.86,SE,145,4.0,6.0,71,0.00,,---,0.00,0.00,VWS V14.01,2013-04-13 07:22:00,
2013-04-13 02:25:00,38.8,30.6,29.86,SE,143,2.0,6.0,72,0.00,,---,0.00,0.00,VWS V14.01,2013-04-13 07:25:00,
2013-04-13 02:27:00,38.5,30.6,29.86,SSE,150,3.0,3.0,73,0.00,,---,0.00,0.00,VWS V14.01,2013-04-13 07:27:00,
2013-04-13 02:30:00,38.0,30.5,29.86,SSE,151,4.0,5.0,74,0.00,,---,0.00,0.00,VWS V14.01,2013-04-13 07:30:00,
2013-04-13 02:32:00,38.0,30.8,29.86,SSE,148,2.0,5.0,75,0.00,,---,0.00,0.00,VWS V14.01,2013-04-13 07:32:00,
2013-04-13 02:35:00,38.3,30.8,29.86,SSE,147,3.0,5.0,74,0.00,,---,0.00,0.00,VWS V14.01,2013-04-13 07:35:00,
2013-04-13 02:37:00,38.3,30.8,29.86,SSE,150,4.0,5.0,74,0.00,,---,0.00,0.00,VWS V14.01,2013-04-13 07:37:00,
2013-04-13 02:40:00,38.0,30.8,29.86,SSE,154,4.0,5.0,75,0.00,,---,0.00,0.00,VWS V14.01,2013-04-13 07:40:00,
2013-04-13 02:42:00,37.9,30.7,29.86,SSE,147,3.0,5.0,75,0.00,,---,0.00,0.00,VWS V14.01,2013-04-13 07:42:00,
2013-04-13 02:45:00,37.8,30.6,29.86,SE,144,4.0,5.0,75,0.00,,---,0.00,0.00,VWS V14.01,2013-04-13 07:45:00,
2013-04-13 02:47:00,37.6,30.7,29.86,South,175,5.0,5.0,76,0.00,,---,0.00,0.00,VWS V14.01,2013-04-13 07:47:00,
2013-04-13 02:50:00,37.5,30.6,29.86,SSE,155,6.0,6.0,76,0.00,,---,0.00,0.00,VWS V14.01,2013-04-13 07:50:00,
2013-04-13 02:53:00,37.6,30.7,29.86,South,178,5.0,6.0,76,0.00,,---,0.00,0.00,VWS V14.01,2013-04-13 07:53:00,
2013-04-13 02:55:00,37.8,30.9,29.86,SSE,151,5.0,6.0,76,0.00,,---,0.00,0.00,VWS V14.01,2013-04-13 07:55:00,
2013-04-13 02:58:00,37.9,30.7,29.86,SE,144,5.0,6.0,75,0.00,,---,0.00,0.00,VWS V14.01,2013-04-13 07:58:00,
2013-04-13 03:00:00,38.2,31.0,29.86,SSE,150,4.0,6.0,75,0.00,,---,0.00,0.00,VWS V14.01,2013-04-13 08:00:00,
2013-04-13 03:03:00,38.2,31.0,29.86,SSE,151,3.0,5.0,75,0.00,,---,0.00,0.00,VWS V14.01,2013-04-13 08:03:00,
2013-04-13 03:05:00,38.2,30.7,29.86,SSE,151,3.0,5.0,74,0.00,,---,0.00,0.00,VWS V14.01,2013-04-13 08:05:00,
2013-04-13 03:08:00,38.3,30.8,29.86,SSE,147,2.0,3.0,74,0.00,,---,0.00,0.00,VWS V14.01,2013-04-13 08:08:00,
2013-04-13 03:10:00,38.5,31.0,29.86,SSE,148,3.0,3.0,74,0.00,,---,0.00,0.00,VWS V14.01,2013-04-13 08:10:00,
2013-04-13 03:13:00,38.5,31.0,29.86,SE,144,3.0,3.0,74,0.00,,---,0.00,0.00,VWS V14.01,2013-04-13 08:13:00,
2013-04-13 03:15:00,38.6,31.0,29.85,SSE,152,2.0,3.0,74,0.00,,---,0.00,0.00,VWS V14.01,2013-04-13 08:15:00,
2013-04-13 03:18:00,38.6,31.0,29.85,SSE,148,2.0,3.0,74,0.00,,---,0.00,0.00,VWS V14.01,2013-04-13 08:18:00,
2013-04-13 03:20:00,38.5,31.0,29.85,SE,144,3.0,3.0,74,0.00,,---,0.00,0.00,VWS V14.01,2013-04-13 08:20:00,
2013-04-13 03:24:00,38.3,30.8,29.85,SSE,148,2.0,3.0,74,0.00,,---,0.00,0.00,VWS V14.01,2013-04-13 08:24:00,
2013-04-13 03:25:00,38.2,30.7,29.85,SSE,147,3.0,3.0,74,0.00,,---,0.00,0.00,VWS V14.01,2013-04-13 08:25:00,
2013-04-13 03:29:00,38.0,30.8,29.85,SE,143,2.0,3.0,75,0.00,,---,0.00,0.00,VWS V14.01,2013-04-13 08:29:00,
2013-04-13 03:30:00,38.0,30.8,29.85,SSE,148,2.0,3.0,75,0.00,,---,0.00,0.00,VWS V14.01,2013-04-13 08:30:00,
2013-04-13 03:34:00,37.9,30.7,29.85,SSE,150,2.0,3.0,75,0.00,,---,0.00,0.00,VWS V14.01,2013-04-13 08:34:00,
2013-04-13 03:35:00,37.9,30.7,29.85,SE,145,2.0,3.0,75,0.00,,---,0.00,0.00,VWS V14.01,2013-04-13 08:35:00,
2013-04-13 03:39:00,37.9,31.0,29.85,SSE,147,2.0,2.0,76,0.00,,---,0.00,0.00,VWS V14.01,2013-04-13 08:39:00,
2013-04-13 03:40:00,37.9,31.0,29.85,SE,144,2.0,2.0,76,0.00,,---,0.00,0.00,VWS V14.01,2013-04-13 08:40:00,
2013-04-13 03:45:00,38.0,31.4,29.85,SE,144,2.0,2.0,77,0.00,,---,0.00,0.00,VWS V14.01,2013-04-13 08:45:00,
2013-04-13 03:50:00,38.2,31.6,29.85,SSE,150,2.0,3.0,77,0.00,,---,0.00,0.00,VWS V14.01,2013-04-13 08:50:00,
2013-04-13 03:55:00,38.2,31.6,29.85,SE,144,2.0,3.0,77,0.00,,---,0.00,0.00,VWS V14.01,2013-04-13 08:55:00,
2013-04-13 04:00:00,38.3,32.0,29.85,SE,143,3.0,3.0,78,0.00,,---,0.00,0.00,VWS V14.01,2013-04-13 09:00:00,
2013-04-13 04:05:00,38.3,31.7,29.85,SSE,150,3.0,3.0,77,0.00,,---,0.00,0.00,VWS V14.01,2013-04-13 09:05:00,
2013-04-13 04:10:00,38.3,31.7,29.85,SSE,148,2.0,3.0,77,0.00,,---,0.00,0.00,VWS V14.01,2013-04-13 09:10:00,
2013-04-13 04:15:00,37.8,31.2,29.85,SSE,152,2.0,2.0,77,0.00,,---,0.00,0.00,VWS V14.01,2013-04-13 09:15:00,
2013-04-13 04:20:00,38.0,31.8,29.85,SSE,148,3.0,3.0,78,0.00,,---,0.00,0.00,VWS V14.01,2013-04-13 09:20:00,
2013-04-13 04:21:00,38.0,31.8,29.85,SE,145,3.0,3.0,78,0.00,,---,0.00,0.00,VWS V14.01,2013-04-13 09:21:00,
2013-04-13 04:25:00,38.2,31.6,29.85,SSE,148,2.0,3.0,77,0.00,,---,0.00,0.00,VWS V14.01,2013-04-13 09:25:00,
2013-04-13 04:26:00,38.2,31.6,29.85,SE,144,3.0,3.0,77,0.00,,---,0.00,0.00,VWS V14.01,2013-04-13 09:26:00,
2013-04-13 04:30:00,38.2,31.3,29.85,SSE,150,4.0,5.0,76,0.00,,---,0.00,0.00,VWS V14.01,2013-04-13 09:30:00,
2013-04-13 04:31:00,38.2,31.3,29.85,SSE,148,5.0,5.0,76,0.00,,---,0.00,0.00,VWS V14.01,2013-04-13 09:31:00,
2013-04-13 04:35:00,38.0,31.4,29.85,SSE,147,5.0,6.0,77,0.00,,---,0.00,0.00,VWS V14.01,2013-04-13 09:35:00,
2013-04-13 04:36:00,38.0,31.4,29.85,SSE,150,4.0,5.0,77,0.00,,---,0.00,0.00,VWS V14.01,2013-04-13 09:36:00,
2013-04-13 04:40:00,38.3,31.7,29.85,SSE,151,3.0,5.0,77,0.00,,---,0.00,0.00,VWS V14.01,2013-04-13 09:40:00,
2013-04-13 04:42:00,38.3,31.7,29.85,SSE,152,4.0,4.0,77,0.00,,---,0.00,0.00,VWS V14.01,2013-04-13 09:42:00,
2013-04-13 04:45:00,38.2,31.3,29.85,SE,145,5.0,5.0,76,0.00,,---,0.00,0.00,VWS V14.01,2013-04-13 09:45:00,
2013-04-13 04:47:00,38.2,31.3,29.85,SSE,151,5.0,5.0,76,0.00,,---,0.00,0.00,VWS V14.01,2013-04-13 09:47:00,
2013-04-13 04:50:00,38.2,31.3,29.85,SSE,148,5.0,6.0,76,0.00,,---,0.00,0.00,VWS V14.01,2013-04-13 09:50:00,
2013-04-13 04:53:00,38.2,31.3,29.85,SSE,162,6.0,6.0,76,0.00,,---,0.00,0.00,VWS V14.01,2013-04-13 09:53:00,
2013-04-13 04:55:00,38.0,31.1,29.85,SSW,198,6.0,6.0,76,0.00,,---,0.00,0.00,VWS V14.01,2013-04-13 09:55:00,
2013-04-13 04:58:00,37.9,31.0,29.85,SW,223,7.0,7.0,76,0.00,,---,0.00,0.00,VWS V14.01,2013-04-13 09:58:00,
2013-04-13 05:00:00,37.8,31.2,29.84,NW,320,7.0,8.0,77,0.00,,---,0.00,0.00,VWS V14.01,2013-04-13 10:00:00,
2013-04-13 05:03:00,37.5,31.0,29.84,SSW,195,6.0,8.0,77,0.00,,---,0.00,0.00,VWS V14.01,2013-04-13 10:03:00,
2013-04-13 05:05:00,37.3,30.8,29.84,SSW,205,6.0,8.0,77,0.00,,---,0.00,0.00,VWS V14.01,2013-04-13 10:05:00,
2013-04-13 05:08:00,37.2,31.0,29.84,SW,216,8.0,8.0,78,0.00,,---,0.00,0.00,VWS V14.01,2013-04-13 10:08:00,
2013-04-13 05:10:00,37.2,31.0,29.84,SW,216,8.0,9.0,78,0.00,,---,0.00,0.00,VWS V14.01,2013-04-13 10:10:00,
2013-04-13 05:14:00,37.3,31.1,29.84,SW,224,7.0,8.0,78,0.00,,---,0.00,0.00,VWS V14.01,2013-04-13 10:14:00,
2013-04-13 05:15:00,37.5,31.3,29.84,SW,219,7.0,8.0,78,0.00,,---,0.00,0.00,VWS V14.01,2013-04-13 10:15:00,
2013-04-13 05:19:00,37.6,31.4,29.84,SW,217,7.0,8.0,78,0.00,,---,0.00,0.00,VWS V14.01,2013-04-13 10:19:00,
2013-04-13 05:20:00,37.6,31.4,29.84,SW,222,7.0,8.0,78,0.00,,---,0.00,0.00,VWS V14.01,2013-04-13 10:20:00,
2013-04-13 05:24:00,37.6,31.1,29.84,SW,217,7.0,8.0,77,0.00,,---,0.00,0.00,VWS V14.01,2013-04-13 10:24:00,
2013-04-13 05:25:00,37.6,31.1,29.84,SW,224,7.0,8.0,77,0.00,,---,0.00,0.00,VWS V14.01,2013-04-13 10:25:00,
2013-04-13 05:29:00,37.3,30.8,29.84,SW,219,8.0,10.0,77,0.00,,---,0.00,0.00,VWS V14.01,2013-04-13 10:29:00,
2013-04-13 05:30:00,37.3,31.1,29.84,SW,217,8.0,10.0,78,0.00,,---,0.00,0.00,VWS V14.01,2013-04-13 10:30:00,
2013-04-13 05:34:00,37.0,30.8,29.84,West,260,7.0,8.0,78,0.00,,---,0.00,0.00,VWS V14.01,2013-04-13 10:34:00,
2013-04-13 05:35:00,36.9,30.7,29.84,SSW,205,6.0,8.0,78,0.00,,---,0.00,0.00,VWS V14.01,2013-04-13 10:35:00,
2013-04-13 05:39:00,36.5,30.6,29.84,West,261,7.0,7.0,79,0.00,,---,0.00,0.00,VWS V14.01,2013-04-13 10:39:00,
2013-04-13 05:40:00,36.3,30.4,29.84,SW,226,7.0,7.0,79,0.00,,---,0.00,0.00,VWS V14.01,2013-04-13 10:40:00,
2013-04-13 05:44:00,36.2,30.3,29.84,SSW,209,5.0,7.0,79,0.00,,---,0.00,0.00,VWS V14.01,2013-04-13 10:44:00,
2013-04-13 05:45:00,36.2,30.3,29.84,SSW,195,6.0,7.0,79,0.00,,---,0.00,0.00,VWS V14.01,2013-04-13 10:45:00,
2013-04-13 05:50:00,36.0,30.4,29.84,NNW,339,8.0,8.0,80,0.00,,---,0.00,0.00,VWS V14.01,2013-04-13 10:50:00,
2013-04-13 05:55:00,35.9,30.3,29.84,South,191,7.0,8.0,80,0.00,,---,0.00,0.00,VWS V14.01,2013-04-13 10:55:00,
2013-04-13 06:00:00,36.2,30.3,29.84,SW,230,8.0,8.0,79,0.00,,---,0.00,0.00,VWS V14.01,2013-04-13 11:00:00,
2013-04-13 06:05:00,36.3,30.4,29.84,West,277,5.0,9.0,79,0.00,,---,0.00,0.00,VWS V14.01,2013-04-13 11:05:00,
2013-04-13 06:10:00,36.5,30.6,29.84,WSW,241,5.0,10.0,79,0.00,,---,0.00,0.00,VWS V14.01,2013-04-13 11:10:00,
2013-04-13 06:15:00,36.5,30.6,29.83,SW,222,5.0,7.0,79,0.00,,---,0.00,0.00,VWS V14.01,2013-04-13 11:15:00,
2013-04-13 06:20:00,36.3,30.1,29.83,South,181,5.0,6.0,78,0.00,,---,0.00,0.00,VWS V14.01,2013-04-13 11:20:00,
2013-04-13 06:25:00,36.2,30.3,29.83,South,184,6.0,6.0,79,0.00,,---,0.00,0.00,VWS V14.01,2013-04-13 11:25:00,
2013-04-13 06:30:00,36.3,30.4,29.83,SSE,157,2.0,6.0,79,0.00,,---,0.00,0.00,VWS V14.01,2013-04-13 11:30:00,
2013-04-13 06:35:00,36.3,30.1,29.83,WNW,298,4.0,5.0,78,0.00,,---,0.00,0.00,VWS V14.01,2013-04-13 11:35:00,
2013-04-13 06:40:00,36.0,29.8,29.83,NNW,336,5.0,7.0,78,0.00,,---,0.00,0.00,VWS V14.01,2013-04-13 11:40:00,
2013-04-13 06:45:00,35.8,29.9,29.84,South,185,6.0,8.0,79,0.00,,---,0.00,0.00,VWS V14.01,2013-04-13 11:45:00,
2013-04-13 06:50:00,35.9,30.0,29.84,South,171,7.0,7.0,79,0.00,,---,0.00,0.00,VWS V14.01,2013-04-13 11:50:00,
2013-04-13 06:51:00,35.9,30.0,29.84,West,277,6.0,7.0,79,0.00,,---,0.00,0.00,VWS V14.01,2013-04-13 11:51:00,
2013-04-13 06:55:00,36.0,30.1,29.84,South,169,6.0,8.0,79,0.00,,---,0.00,0.00,VWS V14.01,2013-04-13 11:55:00,
2013-04-13 06:56:00,36.0,30.1,29.84,SW,222,6.0,6.0,79,0.00,,---,0.00,0.00,VWS V14.01,2013-04-13 11:56:00,
2013-04-13 07:00:00,36.0,30.1,29.83,WNW,284,6.0,7.0,79,0.00,,---,0.00,5.00,VWS V14.01,2013-04-13 12:00:00,
2013-04-13 07:01:00,35.9,30.0,29.83,SW,217,7.0,7.0,79,0.00,,---,0.00,5.00,VWS V14.01,2013-04-13 12:01:00,
2013-04-13 07:05:00,36.2,30.3,29.83,South,184,7.0,8.0,79,0.00,,---,0.00,9.00,VWS V14.01,2013-04-13 12:05:00,
2013-04-13 07:06:00,36.2,30.3,29.83,SSE,165,6.0,7.0,79,0.00,,---,0.00,9.00,VWS V14.01,2013-04-13 12:06:00,
2013-04-13 07:10:00,36.3,30.1,29.83,WSW,241,6.0,7.0,78,0.00,,---,0.00,9.00,VWS V14.01,2013-04-13 12:10:00,
2013-04-13 07:12:00,36.3,30.1,29.83,SSE,158,5.0,6.0,78,0.00,,---,0.00,9.00,VWS V14.01,2013-04-13 12:12:00,
2013-04-13 07:15:00,36.5,30.3,29.83,SSW,205,3.0,6.0,78,0.00,,---,0.00,11.00,VWS V14.01,2013-04-13 12:15:00,
2013-04-13 07:17:00,36.8,30.6,29.83,SSW,212,4.0,6.0,78,0.00,,---,0.00,19.00,VWS V14.01,2013-04-13 12:17:00,
2013-04-13 07:20:00,37.0,30.5,29.83,SSE,158,3.0,6.0,77,0.00,,---,0.00,26.00,VWS V14.01,2013-04-13 12:20:00,
2013-04-13 07:22:00,37.2,30.7,29.83,South,182,3.0,6.0,77,0.00,,---,0.00,26.00,VWS V14.01,2013-04-13 12:22:00,
2013-04-13 07:25:00,37.5,31.0,29.83,SE,144,2.0,6.0,77,0.00,,---,0.00,35.00,VWS V14.01,2013-04-13 12:25:00,
2013-04-13 07:27:00,37.6,30.7,29.83,SSE,150,3.0,6.0,76,0.00,,---,0.00,35.00,VWS V14.01,2013-04-13 12:27:00,
2013-04-13 07:30:00,37.8,30.9,29.83,West,267,7.0,7.0,76,0.00,,---,0.00,46.00,VWS V14.01,2013-04-13 12:30:00,
2013-04-13 07:32:00,38.0,31.1,29.83,SSW,202,5.0,7.0,76,0.00,,---,0.00,46.00,VWS V14.01,2013-04-13 12:32:00,
2013-04-13 07:35:00,38.3,31.1,29.83,South,175,7.0,10.0,75,0.00,,---,0.00,69.00,VWS V14.01,2013-04-13 12:35:00,
2013-04-13 07:37:00,38.5,31.3,29.83,SSE,148,6.0,8.0,75,0.00,,---,0.00,74.00,VWS V14.01,2013-04-13 12:37:00,
2013-04-13 07:40:00,38.6,31.4,29.83,NNW,330,9.0,9.0,75,0.00,,---,0.00,93.00,VWS V14.01,2013-04-13 12:40:00,
2013-04-13 07:43:00,38.6,31.4,29.83,NW,312,8.0,10.0,75,0.00,,---,0.00,99.00,VWS V14.01,2013-04-13 12:43:00,
2013-04-13 07:45:00,38.6,31.4,29.83,SW,219,7.0,10.0,75,0.00,,---,0.00,107.00,VWS V14.01,2013-04-13 12:45:00,
2013-04-13 07:48:00,38.8,31.6,29.83,SSE,148,9.0,10.0,75,0.00,,---,0.00,111.00,VWS V14.01,2013-04-13 12:48:00,
2013-04-13 07:50:00,38.9,31.7,29.83,West,277,8.0,11.0,75,0.00,,---,0.00,120.00,VWS V14.01,2013-04-13 12:50:00,
2013-04-13 07:53:00,38.9,31.7,29.83,SE,134,9.0,11.0,75,0.00,,---,0.00,127.00,VWS V14.01,2013-04-13 12:53:00,
2013-04-13 07:55:00,39.1,32.2,29.83,South,172,10.0,11.0,76,0.00,,---,0.00,134.00,VWS V14.01,2013-04-13 12:55:00,
2013-04-13 07:58:00,39.3,32.4,29.83,SE,133,6.0,10.0,76,0.00,,---,0.00,141.00,VWS V14.01,2013-04-13 12:58:00,
2013-04-13 08:00:00,39.5,32.2,29.83,South,189,8.0,10.0,75,0.00,,---,0.00,150.00,VWS V14.01,2013-04-13 13:00:00,
2013-04-13 08:03:00,39.6,32.3,29.83,South,182,7.0,9.0,75,0.00,,---,0.00,158.00,VWS V14.01,2013-04-13 13:03:00,
2013-04-13 08:05:00,39.9,32.3,29.83,SE,141,8.0,10.0,74,0.00,,---,0.00,165.00,VWS V14.01,2013-04-13 13:05:00,
2013-04-13 08:08:00,40.1,32.5,29.83,SE,131,5.0,11.0,74,0.00,,---,0.00,164.00,VWS V14.01,2013-04-13 13:08:00,
2013-04-13 08:10:00,40.3,32.3,29.83,South,181,6.0,11.0,73,0.00,,---,0.00,172.00,VWS V14.01,2013-04-13 13:10:00,
2013-04-13 08:13:00,40.6,32.6,29.83,SSE,157,6.0,9.0,73,0.00,,---,0.00,179.00,VWS V14.01,2013-04-13 13:13:00,
2013-04-13 08:15:00,40.9,32.9,29.83,SSE,165,8.0,10.0,73,0.00,,---,0.00,188.00,VWS V14.01,2013-04-13 13:15:00,
2013-04-13 08:19:00,41.2,32.9,29.83,West,275,7.0,9.0,72,0.00,,---,0.00,197.00,VWS V14.01,2013-04-13 13:19:00,
2013-04-13 08:20:00,41.3,33.0,29.83,SE,130,6.0,9.0,72,0.00,,---,0.00,206.00,VWS V14.01,2013-04-13 13:20:00,
2013-04-13 08:24:00,41.8,33.1,29.83,WSW,237,7.0,11.0,71,0.00,,---,0.00,216.00,VWS V14.01,2013-04-13 13:24:00,
2013-04-13 08:25:00,41.8,33.1,29.83,ESE,119,7.0,11.0,71,0.00,,---,0.00,222.00,VWS V14.01,2013-04-13 13:25:00,
2013-04-13 08:30:00,42.1,32.7,29.83,WNW,295,7.0,11.0,69,0.00,,---,0.00,232.00,VWS V14.01,2013-04-13 13:30:00,
2013-04-13 08:35:00,42.3,32.5,29.82,SE,137,7.0,12.0,68,0.00,,---,0.00,253.00,VWS V14.01,2013-04-13 13:35:00,
2013-04-13 08:40:00,42.5,32.7,29.82,West,265,10.0,12.0,68,0.00,,---,0.00,280.00,VWS V14.01,2013-04-13 13:40:00,
2013-04-13 08:45:00,42.9,32.7,29.82,SE,133,8.0,13.0,67,0.00,,---,0.00,299.00,VWS V14.01,2013-04-13 13:45:00,
2013-04-13 08:50:00,43.2,33.0,29.82,West,265,8.0,13.0,67,0.00,,---,0.00,315.00,VWS V14.01,2013-04-13 13:50:00,
2013-04-13 08:55:00,43.6,33.4,29.82,SE,130,10.0,13.0,67,0.00,,---,0.00,334.00,VWS V14.01,2013-04-13 13:55:00,
2013-04-13 09:00:00,44.2,33.6,29.82,SW,222,13.0,16.0,66,0.00,,---,0.00,354.00,VWS V14.01,2013-04-13 14:00:00,
2013-04-13 09:05:00,44.9,33.9,29.82,WSW,243,12.0,14.0,65,0.00,,---,0.00,371.00,VWS V14.01,2013-04-13 14:05:00,
2013-04-13 09:10:00,45.4,33.6,29.82,South,172,9.0,16.0,63,0.00,,---,0.00,375.00,VWS V14.01,2013-04-13 14:10:00,
2013-04-13 09:15:00,45.7,33.0,29.81,SE,124,12.0,17.0,61,0.00,,---,0.00,391.00,VWS V14.01,2013-04-13 14:15:00,
2013-04-13 09:20:00,46.2,33.9,29.81,SE,143,9.0,13.0,62,0.00,,---,0.00,408.00,VWS V14.01,2013-04-13 14:20:00,
2013-04-13 09:23:00,46.5,34.2,29.81,SE,145,10.0,15.0,62,0.00,,---,0.00,417.00,VWS V14.01,2013-04-13 14:23:00,
2013-04-13 09:25:00,46.7,34.0,29.81,SW,216,13.0,17.0,61,0.00,,---,0.00,422.00,VWS V14.01,2013-04-13 14:25:00,
2013-04-13 09:28:00,47.0,34.3,29.81,SE,143,13.0,17.0,61,0.00,,---,0.00,431.00,VWS V14.01,2013-04-13 14:28:00,
2013-04-13 09:30:00,47.1,34.4,29.80,West,274,7.0,17.0,61,0.00,,---,0.00,443.00,VWS V14.01,2013-04-13 14:30:00,
2013-04-13 09:33:00,47.6,34.8,29.80,South,184,6.0,16.0,61,0.00,,---,0.00,449.00,VWS V14.01,2013-04-13 14:33:00,
2013-04-13 09:35:00,47.9,35.1,29.80,South,172,10.0,16.0,61,0.00,,---,0.00,459.00,VWS V14.01,2013-04-13 14:35:00,
2013-04-13 09:39:00,48.5,35.3,29.80,SW,236,11.0,13.0,60,0.00,,---,0.00,470.00,VWS V14.01,2013-04-13 14:39:00,
2013-04-13 09:40:00,48.6,34.9,29.80,WNW,298,11.0,14.0,59,0.00,,---,0.00,484.00,VWS V14.01,2013-04-13 14:40:00,
2013-04-13 09:44:00,49.1,35.8,29.80,NNW,337,7.0,12.0,60,0.00,,---,0.00,493.00,VWS V14.01,2013-04-13 14:44:00,
2013-04-13 09:45:00,49.4,36.1,29.79,SSE,148,11.0,12.0,60,0.00,,---,0.00,510.00,VWS V14.01,2013-04-13 14:45:00,
2013-04-13 09:49:00,49.9,35.7,29.79,SW,223,11.0,13.0,58,0.00,,---,0.00,512.00,VWS V14.01,2013-04-13 14:49:00,
2013-04-13 09:50:00,50.1,35.5,29.79,WSW,250,11.0,13.0,57,0.00,,---,0.00,523.00,VWS V14.01,2013-04-13 14:50:00,
2013-04-13 09:54:00,50.4,34.4,29.79,SE,140,12.0,17.0,54,0.00,,---,0.00,542.00,VWS V14.01,2013-04-13 14:54:00,
2013-04-13 09:55:00,50.4,34.4,29.79,South,174,13.0,17.0,54,0.00,,---,0.00,558.00,VWS V14.01,2013-04-13 14:55:00,
2013-04-13 09:59:00,50.5,35.0,29.79,SE,130,12.0,17.0,55,0.00,,---,0.00,609.00,VWS V14.01,2013-04-13 14:59:00,
2013-04-13 10:00:00,50.7,35.1,29.78,West,277,15.0,17.0,55,0.00,,---,0.00,609.00,VWS V14.01,2013-04-13 15:00:00,
2013-04-13 10:04:00,51.0,35.0,29.78,West,265,6.0,16.0,54,0.00,,---,0.00,366.00,VWS V14.01,2013-04-13 15:04:00,
2013-04-13 10:05:00,51.0,35.0,29.78,South,179,8.0,16.0,54,0.00,,---,0.00,373.00,VWS V14.01,2013-04-13 15:05:00,
2013-04-13 10:10:00,51.0,35.0,29.78,SSE,165,7.0,16.0,54,0.00,,---,0.00,313.00,VWS V14.01,2013-04-13 15:10:00,
2013-04-13 10:15:00,51.1,35.5,29.78,SSW,210,7.0,14.0,55,0.00,,---,0.00,306.00,VWS V14.01,2013-04-13 15:15:00,
2013-04-13 10:16:00,51.1,35.5,29.78,SSE,168,7.0,7.0,55,0.00,,---,0.00,306.00,VWS V14.01,2013-04-13 15:16:00,
2013-04-13 10:20:00,51.3,35.7,29.78,South,179,14.0,16.0,55,0.00,,---,0.00,392.00,VWS V14.01,2013-04-13 15:20:00,
2013-04-13 10:21:00,51.3,35.7,29.78,South,188,8.0,14.0,55,0.00,,---,0.00,392.00,VWS V14.01,2013-04-13 15:21:00,
2013-04-13 10:25:00,51.7,35.1,29.78,SSE,165,11.0,18.0,53,0.00,,---,0.00,380.00,VWS V14.01,2013-04-13 15:25:00,
2013-04-13 10:26:00,51.7,35.1,29.78,ESE,123,12.0,12.0,53,0.00,,---,0.00,380.00,VWS V14.01,2013-04-13 15:26:00,
2013-04-13 10:30:00,51.7,35.1,29.77,WNW,287,11.0,19.0,53,0.00,,---,0.00,377.00,VWS V14.01,2013-04-13 15:30:00,
2013-04-13 10:32:00,51.7,35.6,29.77,SSE,150,11.0,15.0,54,0.00,,---,0.00,359.00,VWS V14.01,2013-04-13 15:32:00,
2013-04-13 10:35:00,51.7,35.1,29.77,SW,227,11.0,15.0,53,0.00,,---,0.00,370.00,VWS V14.01,2013-04-13 15:35:00,
2013-04-13 10:37:00,51.9,35.3,29.77,SSE,151,14.0,14.0,53,0.00,,---,0.00,384.00,VWS V14.01,2013-04-13 15:37:00,
2013-04-13 10:40:00,52.2,35.1,29.77,North,0,12.0,16.0,52,0.00,,---,0.00,403.00,VWS V14.01,2013-04-13 15:40:00,
2013-04-13 10:42:00,52.3,35.7,29.77,SW,219,13.0,15.0,53,0.00,,---,0.00,387.00,VWS V14.01,2013-04-13 15:42:00,
2013-04-13 10:45:00,52.6,36.0,29.76,NNW,339,13.0,17.0,53,0.00,,---,0.00,387.00,VWS V14.01,2013-04-13 15:45:00,
2013-04-13 10:48:00,52.8,35.7,29.76,WNW,296,10.0,14.0,52,0.00,,---,0.00,391.00,VWS V14.01,2013-04-13 15:48:00,
2013-04-13 10:50:00,53.1,36.4,29.76,West,264,7.0,16.0,53,0.00,,---,0.00,384.00,VWS V14.01,2013-04-13 15:50:00,
2013-04-13 10:53:00,53.2,37.0,29.76,NNW,343,12.0,12.0,54,0.00,,---,0.00,384.00,VWS V14.01,2013-04-13 15:53:00,
2013-04-13 10:55:00,53.5,36.3,29.76,SSE,158,13.0,17.0,52,0.00,,---,0.00,389.00,VWS V14.01,2013-04-13 15:55:00,
2013-04-13 10:58:00,53.5,36.3,29.76,SSE,155,11.0,13.0,52,0.00,,---,0.00,449.00,VWS V14.01,2013-04-13 15:58:00,
2013-04-13 11:00:00,53.6,36.4,29.75,WNW,292,11.0,13.0,52,0.00,,---,0.00,415.00,VWS V14.01,2013-04-13 16:00:00,
2013-04-13 11:03:00,53.8,36.6,29.75,West,260,12.0,14.0,52,0.00,,---,0.00,415.00,VWS V14.01,2013-04-13 16:03:00,
2013-04-13 11:05:00,53.8,36.6,29.75,West,260,10.0,16.0,52,0.00,,---,0.00,966.00,VWS V14.01,2013-04-13 16:05:00,
2013-04-13 11:08:00,53.9,35.7,29.75,SSE,165,7.0,19.0,50,0.00,,---,0.00,421.00,VWS V14.01,2013-04-13 16:08:00,
2013-04-13 11:10:00,53.9,36.7,29.75,South,172,8.0,19.0,52,0.00,,---,0.00,491.00,VWS V14.01,2013-04-13 16:10:00,
2013-04-13 11:13:00,54.1,36.9,29.75,SE,131,11.0,14.0,52,0.00,,---,0.00,498.00,VWS V14.01,2013-04-13 16:13:00,
2013-04-13 11:15:00,54.2,37.0,29.75,SSE,160,12.0,17.0,52,0.00,,---,0.00,498.00,VWS V14.01,2013-04-13 16:15:00,
2013-04-13 11:18:00,54.2,36.5,29.75,NW,309,5.0,18.0,51,0.00,,---,0.00,431.00,VWS V14.01,2013-04-13 16:18:00,
2013-04-13 11:20:00,54.5,36.8,29.75,SSE,155,10.0,18.0,51,0.00,,---,0.00,368.00,VWS V14.01,2013-04-13 16:20:00,
2013-04-13 11:23:00,54.5,36.3,29.75,SSW,212,14.0,17.0,50,0.00,,---,0.00,334.00,VWS V14.01,2013-04-13 16:23:00,
2013-04-13 11:25:00,54.5,36.3,29.75,SE,136,13.0,17.0,50,0.00,,---,0.00,391.00,VWS V14.01,2013-04-13 16:25:00,
2013-04-13 11:28:00,54.5,36.8,29.75,SSW,203,9.0,18.0,51,0.00,,---,0.00,391.00,VWS V14.01,2013-04-13 16:28:00,
2013-04-13 11:30:00,54.7,36.4,29.74,SSW,193,12.0,18.0,50,0.00,,---,0.00,391.00,VWS V14.01,2013-04-13 16:30:00,
2013-04-13 11:34:00,55.0,37.2,29.74,SSE,162,10.0,13.0,51,0.00,,---,0.00,792.00,VWS V14.01,2013-04-13 16:34:00,
2013-04-13 11:35:00,55.3,36.5,29.74,SW,219,13.0,22.0,49,0.00,,---,0.00,778.00,VWS V14.01,2013-04-13 16:35:00,
2013-04-13 11:39:00,55.9,37.0,29.74,SSW,193,15.0,18.0,49,0.00,,---,0.00,778.00,VWS V14.01,2013-04-13 16:39:00,
2013-04-13 11:40:00,56.0,37.6,29.74,North,359,11.0,18.0,50,0.00,,---,0.00,785.00,VWS V14.01,2013-04-13 16:40:00,
2013-04-13 11:44:00,56.2,37.3,29.74,WSW,246,17.0,19.0,49,0.00,,---,0.00,725.00,VWS V14.01,2013-04-13 16:44:00,
2013-04-13 11:45:00,56.3,37.9,29.73,WSW,246,16.0,19.0,50,0.00,,---,0.00,734.00,VWS V14.01,2013-04-13 16:45:00,
2013-04-13 11:49:00,56.7,38.3,29.73,NW,309,16.0,16.0,50,0.00,,---,0.00,794.00,VWS V14.01,2013-04-13 16:49:00,
2013-04-13 11:50:00,56.9,36.9,29.73,WNW,289,7.0,16.0,47,0.00,,---,0.00,797.00,VWS V14.01,2013-04-13 16:50:00,
2013-04-13 11:54:00,57.2,37.7,29.73,SSE,150,16.0,20.0,48,0.00,,---,0.00,801.00,VWS V14.01,2013-04-13 16:54:00,
2013-04-13 11:55:00,57.3,37.8,29.73,SSE,164,12.0,20.0,48,0.00,,---,0.00,802.00,VWS V14.01,2013-04-13 16:55:00,
2013-04-13 11:59:00,57.6,38.1,29.73,South,186,10.0,19.0,48,0.00,,---,0.00,811.00,VWS V14.01,2013-04-13 16:59:00,
2013-04-13 12:00:00,57.6,38.1,29.72,SW,222,18.0,19.0,48,0.00,,---,0.00,813.00,VWS V14.01,2013-04-13 17:00:00,
2013-04-13 12:04:00,57.8,37.7,29.72,NW,316,10.0,19.0,47,0.00,,---,0.00,815.00,VWS V14.01,2013-04-13 17:04:00,
2013-04-13 12:05:00,58.0,38.4,29.72,North,352,17.0,19.0,48,0.00,,---,0.00,816.00,VWS V14.01,2013-04-13 17:05:00,
2013-04-13 12:09:00,58.4,38.3,29.72,NW,320,20.0,22.0,47,0.00,,---,0.00,827.00,VWS V14.01,2013-04-13 17:09:00,
2013-04-13 12:10:00,58.4,36.6,29.72,North,353,14.0,22.0,44,0.00,,---,0.00,778.00,VWS V14.01,2013-04-13 17:10:00,
2013-04-13 12:15:00,58.4,37.2,29.70,SE,131,13.0,25.0,45,0.00,,---,0.00,830.00,VWS V14.01,2013-04-13 17:15:00,
2013-04-13 12:20:00,58.9,37.6,29.70,WSW,246,9.0,18.0,45,0.00,,---,0.00,839.00,VWS V14.01,2013-04-13 17:20:00,
2013-04-13 12:25:00,59.6,36.5,29.70,West,278,13.0,18.0,42,0.00,,---,0.00,846.00,VWS V14.01,2013-04-13 17:25:00,
2013-04-13 12:30:00,59.5,38.7,29.69,South,169,10.0,20.0,46,0.00,,---,0.00,846.00,VWS V14.01,2013-04-13 17:30:00,
2013-04-13 12:35:00,59.8,38.4,29.69,NNW,330,10.0,22.0,45,0.00,,---,0.00,853.00,VWS V14.01,2013-04-13 17:35:00,
2013-04-13 12:40:00,60.2,38.2,29.69,North,353,21.0,21.0,44,0.00,,---,0.00,855.00,VWS V14.01,2013-04-13 17:40:00,
2013-04-13 12:42:00,60.4,37.8,29.69,WNW,291,11.0,21.0,43,0.00,,---,0.00,859.00,VWS V14.01,2013-04-13 17:42:00,
2013-04-13 12:45:00,60.2,38.8,29.68,WNW,301,11.0,21.0,45,0.00,,---,0.00,859.00,VWS V14.01,2013-04-13 17:45:00,
2013-04-13 12:48:00,60.2,38.8,29.68,North,357,18.0,20.0,45,0.00,,---,0.00,860.00,VWS V14.01,2013-04-13 17:48:00,
2013-04-13 12:50:00,60.2,38.8,29.68,South,169,13.0,20.0,45,0.00,,---,0.00,862.00,VWS V14.01,2013-04-13 17:50:00,
2013-04-13 12:54:00,60.4,38.4,29.68,NNW,342,8.0,27.0,44,0.00,,---,0.00,866.00,VWS V14.01,2013-04-13 17:54:00,
2013-04-13 12:55:00,60.4,38.4,29.68,WSW,248,16.0,27.0,44,0.00,,---,0.00,832.00,VWS V14.01,2013-04-13 17:55:00,
2013-04-13 12:59:00,60.7,39.3,29.68,West,271,12.0,20.0,45,0.00,,---,0.00,84.00,VWS V14.01,2013-04-13 17:59:00,
2013-04-13 13:00:00,60.9,39.4,29.66,North,359,20.0,20.0,45,0.00,,---,0.00,84.00,VWS V14.01,2013-04-13 18:00:00,
2013-04-13 13:05:00,60.9,39.4,29.66,WNW,284,14.0,26.0,45,0.00,,---,0.00,97.00,VWS V14.01,2013-04-13 18:05:00,
2013-04-13 13:10:00,61.2,39.7,29.66,SSW,213,16.0,20.0,45,0.00,,---,0.00,871.00,VWS V14.01,2013-04-13 18:10:00,
2013-04-13 13:15:00,61.2,39.7,29.65,SW,219,10.0,18.0,45,0.00,,---,0.00,816.00,VWS V14.01,2013-04-13 18:15:00,
2013-04-13 13:20:00,61.5,40.0,29.65,SSW,198,13.0,19.0,45,0.00,,---,0.00,816.00,VWS V14.01,2013-04-13 18:20:00,
2013-04-13 13:25:00,61.8,40.3,29.65,SW,223,12.0,20.0,45,0.00,,---,0.00,144.00,VWS V14.01,2013-04-13 18:25:00,
2013-04-13 13:27:00,62.1,41.7,29.65,NW,305,17.0,17.0,47,0.00,,---,0.00,74.00,VWS V14.01,2013-04-13 18:27:00,
2013-04-13 13:28:00,62.1,40.5,29.65,WNW,296,17.0,19.0,45,0.00,,---,0.00,74.00,VWS V14.01,2013-04-13 18:28:00,
2013-04-13 13:30:00,62.3,40.7,29.63,West,278,17.0,22.0,45,0.00,,---,0.00,74.00,VWS V14.01,2013-04-13 18:30:00,
2013-04-13 13:33:00,62.3,40.7,29.63,NW,320,13.0,22.0,45,0.00,,---,0.00,74.00,VWS V14.01,2013-04-13 18:33:00,
2013-04-13 13:35:00,62.4,41.4,29.63,NW,313,11.0,22.0,46,0.00,,---,0.00,102.00,VWS V14.01,2013-04-13 18:35:00,
2013-04-13 13:38:00,62.4,40.8,29.63,NW,318,11.0,20.0,45,0.00,,---,0.00,391.00,VWS V14.01,2013-04-13 18:38:00,
2013-04-13 13:40:00,62.4,40.8,29.63,NW,320,19.0,22.0,45,0.00,,---,0.00,391.00,VWS V14.01,2013-04-13 18:40:00,
2013-04-13 13:43:00,62.6,42.7,29.63,NW,322,16.0,24.0,48,0.00,,---,0.00,391.00,VWS V14.01,2013-04-13 18:43:00,
2013-04-13 13:45:00,62.6,42.7,29.62,NW,320,21.0,24.0,48,0.00,,---,0.00,391.00,VWS V14.01,2013-04-13 18:45:00,
2013-04-13 13:48:00,62.9,41.8,29.62,WSW,257,24.0,25.0,46,0.00,,---,0.00,391.00,VWS V14.01,2013-04-13 18:48:00,
2013-04-13 13:50:00,63.1,41.4,29.62,SW,236,8.0,25.0,45,0.00,,---,0.00,816.00,VWS V14.01,2013-04-13 18:50:00,
2013-04-13 13:54:00,63.4,42.3,29.62,West,281,14.0,18.0,46,0.00,,---,0.00,266.00,VWS V14.01,2013-04-13 18:54:00,
2013-04-13 13:55:00,63.4,42.3,29.62,SSE,157,8.0,25.0,46,0.00,,---,0.00,266.00,VWS V14.01,2013-04-13 18:55:00,
2013-04-13 13:59:00,63.9,42.7,29.62,SW,217,12.0,19.0,46,0.00,,---,0.00,234.00,VWS V14.01,2013-04-13 18:59:00,
2013-04-13 14:00:00,64.0,43.9,29.61,South,188,12.0,21.0,48,0.00,,---,0.00,552.00,VWS V14.01,2013-04-13 19:00:00,
2013-04-13 14:04:00,64.5,43.3,29.61,North,350,11.0,22.0,46,0.00,,---,0.00,84.00,VWS V14.01,2013-04-13 19:04:00,
2013-04-13 14:05:00,64.5,42.7,29.61,North,354,17.0,28.0,45,0.00,,---,0.00,88.00,VWS V14.01,2013-04-13 19:05:00,
2013-04-13 14:09:00,64.5,42.7,29.61,North,350,9.0,22.0,45,0.00,,---,0.00,88.00,VWS V14.01,2013-04-13 19:09:00,
2013-04-13 14:10:00,64.7,44.0,29.61,SW,236,11.0,22.0,47,0.00,,---,0.00,857.00,VWS V14.01,2013-04-13 19:10:00,
2013-04-13 14:14:00,64.7,42.3,29.61,NW,312,18.0,27.0,44,0.00,,---,0.00,853.00,VWS V14.01,2013-04-13 19:14:00,
2013-04-13 14:15:00,64.7,42.9,29.59,South,172,11.0,27.0,45,0.00,,---,0.00,855.00,VWS V14.01,2013-04-13 19:15:00,
2013-04-13 14:19:00,64.8,43.0,29.59,SSW,209,13.0,19.0,45,0.00,,---,0.00,859.00,VWS V14.01,2013-04-13 19:19:00,
2013-04-13 14:20:00,64.8,43.0,29.59,NW,323,11.0,20.0,45,0.00,,---,0.00,850.00,VWS V14.01,2013-04-13 19:20:00,
2013-04-13 14:24:00,64.8,43.0,29.59,SW,230,20.0,24.0,45,0.00,,---,0.00,857.00,VWS V14.01,2013-04-13 19:24:00,
2013-04-13 14:25:00,65.2,44.5,29.59,SSE,150,13.0,24.0,47,0.00,,---,0.00,862.00,VWS V14.01,2013-04-13 19:25:00,
2013-04-13 14:29:00,65.5,43.0,29.58,North,354,14.0,19.0,44,0.00,,---,0.00,853.00,VWS V14.01,2013-04-13 19:29:00,
2013-04-13 14:30:00,65.5,43.6,29.58,NNW,342,11.0,19.0,45,0.00,,---,0.00,845.00,VWS V14.01,2013-04-13 19:30:00,
2013-04-13 14:34:00,65.8,45.0,29.58,SSW,195,13.0,18.0,47,0.00,,---,0.00,859.00,VWS V14.01,2013-04-13 19:34:00,
2013-04-13 14:35:00,66.0,44.1,29.58,South,186,19.0,19.0,45,0.00,,---,0.00,859.00,VWS V14.01,2013-04-13 19:35:00,
2013-04-13 14:40:00,66.0,44.1,29.58,WSW,256,10.0,25.0,45,0.00,,---,0.00,864.00,VWS V14.01,2013-04-13 19:40:00,
2013-04-13 14:45:00,66.0,44.7,29.56,SSW,202,13.0,25.0,46,0.00,,---,0.00,841.00,VWS V14.01,2013-04-13 19:45:00,
2013-04-13 14:50:00,65.8,44.5,29.56,SSW,203,13.0,24.0,46,0.00,,---,0.00,827.00,VWS V14.01,2013-04-13 19:50:00,
2013-04-13 14:55:00,66.3,44.9,29.56,SW,230,17.0,24.0,46,0.00,,---,0.00,830.00,VWS V14.01,2013-04-13 19:55:00,
2013-04-13 15:00:00,66.4,44.4,29.55,WSW,248,21.0,29.0,45,0.00,,---,0.00,813.00,VWS V14.01,2013-04-13 20:00:00,
2013-04-13 15:05:00,66.4,44.4,29.55,WNW,294,16.0,22.0,45,0.00,,---,0.00,808.00,VWS V14.01,2013-04-13 20:05:00,
2013-04-13 15:10:00,66.6,45.2,29.55,NNW,333,20.0,26.0,46,0.00,,---,0.00,787.00,VWS V14.01,2013-04-13 20:10:00,
2013-04-13 15:15:00,66.9,44.3,29.54,NNW,343,13.0,26.0,44,0.00,,---,0.00,785.00,VWS V14.01,2013-04-13 20:15:00,
2013-04-13 15:20:00,66.9,44.3,29.54,SW,227,12.0,27.0,44,0.00,,---,0.00,783.00,VWS V14.01,2013-04-13 20:20:00,
2013-04-13 15:25:00,66.9,45.5,29.54,SSW,210,30.0,30.0,46,0.00,,---,0.00,778.00,VWS V14.01,2013-04-13 20:25:00,
2013-04-13 15:30:00,66.8,44.8,29.53,WNW,288,25.0,34.0,45,0.00,,---,0.00,748.00,VWS V14.01,2013-04-13 20:30:00,
2013-04-13 15:35:00,66.6,45.2,29.53,South,174,22.0,30.0,46,0.00,,---,0.00,746.00,VWS V14.01,2013-04-13 20:35:00,
2013-04-13 15:40:00,66.8,45.9,29.53,WSW,254,16.0,34.0,47,0.00,,---,0.00,739.00,VWS V14.01,2013-04-13 20:40:00,
2013-04-13 15:45:00,67.1,45.7,29.51,West,264,31.0,31.0,46,0.00,,---,0.00,699.00,VWS V14.01,2013-04-13 20:45:00,
2013-04-13 15:50:00,67.6,46.7,29.51,North,0,22.0,31.0,47,0.00,,---,0.00,725.00,VWS V14.01,2013-04-13 20:50:00,
2013-04-13 15:55:00,67.8,46.9,29.51,South,188,21.0,27.0,47,0.00,,---,0.00,720.00,VWS V14.01,2013-04-13 20:55:00,
2013-04-13 15:56:00,67.8,46.9,29.51,South,179,25.0,25.0,47,0.00,,---,0.00,720.00,VWS V14.01,2013-04-13 20:56:00,
2013-04-13 16:00:00,67.8,47.4,29.50,WNW,285,17.0,27.0,48,0.00,,---,0.00,684.00,VWS V14.01,2013-04-13 21:00:00,
2013-04-13 16:01:00,67.8,47.4,29.50,SSE,167,18.0,18.0,48,0.00,,---,0.00,667.00,VWS V14.01,2013-04-13 21:01:00,
2013-04-13 16:05:00,67.6,46.7,29.50,NW,322,20.0,25.0,47,0.00,,---,0.00,748.00,VWS V14.01,2013-04-13 21:05:00,
2013-04-13 16:06:00,67.4,47.0,29.50,WNW,295,12.0,21.0,48,0.00,,---,0.00,714.00,VWS V14.01,2013-04-13 21:06:00,
2013-04-13 16:10:00,67.4,47.0,29.50,NW,326,17.0,25.0,48,0.00,,---,0.00,750.00,VWS V14.01,2013-04-13 21:10:00,
2013-04-13 16:12:00,67.3,47.0,29.50,NW,325,24.0,24.0,48,0.00,,---,0.00,750.00,VWS V14.01,2013-04-13 21:12:00,
2013-04-13 16:15:00,66.8,47.0,29.49,SSW,213,29.0,32.0,49,0.00,,---,0.00,732.00,VWS V14.01,2013-04-13 21:15:00,
2013-04-13 16:17:00,66.6,47.9,29.49,SSW,213,29.0,29.0,51,0.00,,---,0.00,732.00,VWS V14.01,2013-04-13 21:17:00,
2013-04-13 16:20:00,66.9,47.7,29.49,WSW,239,22.0,31.0,50,0.00,,---,0.00,619.00,VWS V14.01,2013-04-13 21:20:00,
2013-04-13 16:22:00,66.9,47.7,29.49,WSW,239,22.0,22.0,50,0.00,,---,0.00,619.00,VWS V14.01,2013-04-13 21:22:00,
2013-04-13 16:25:00,66.9,47.1,29.49,SW,226,21.0,31.0,49,0.00,,---,0.00,649.00,VWS V14.01,2013-04-13 21:25:00,
2013-04-13 16:27:00,66.8,47.6,29.49,SSW,209,24.0,26.0,50,0.00,,---,0.00,139.00,VWS V14.01,2013-04-13 21:27:00,
2013-04-13 16:30:00,66.4,47.7,29.48,NW,306,17.0,28.0,51,0.00,,---,0.00,139.00,VWS V14.01,2013-04-13 21:30:00,
2013-04-13 16:32:00,66.4,47.7,29.48,NW,318,20.0,25.0,51,0.00,,---,0.00,465.00,VWS V14.01,2013-04-13 21:32:00,
2013-04-13 16:35:00,66.6,47.9,29.48,SW,234,28.0,29.0,51,0.00,,---,0.00,433.00,VWS V14.01,2013-04-13 21:35:00,
2013-04-13 16:37:00,66.4,48.3,29.48,SW,215,27.0,31.0,52,0.00,,---,0.00,568.00,VWS V14.01,2013-04-13 21:37:00,
2013-04-13 16:40:00,66.6,48.4,29.48,WSW,237,10.0,31.0,52,0.00,,---,0.00,544.00,VWS V14.01,2013-04-13 21:40:00,
2013-04-13 16:42:00,66.8,48.6,29.48,WSW,250,17.0,25.0,52,0.00,,---,0.00,544.00,VWS V14.01,2013-04-13 21:42:00,
2013-04-13 16:45:00,66.9,49.2,29.47,South,181,18.0,25.0,53,0.00,,---,0.00,544.00,VWS V14.01,2013-04-13 21:45:00,
2013-04-13 16:47:00,67.1,48.9,29.47,SW,222,24.0,26.0,52,0.00,,---,0.00,635.00,VWS V14.01,2013-04-13 21:47:00,
2013-04-13 16:50:00,67.3,49.1,29.47,WSW,253,22.0,33.0,52,0.00,,---,0.00,649.00,VWS V14.01,2013-04-13 21:50:00,
2013-04-13 16:53:00,67.3,48.6,29.47,NW,313,21.0,34.0,51,0.00,,---,0.00,570.00,VWS V14.01,2013-04-13 21:53:00,
2013-04-13 16:55:00,67.3,48.0,29.47,WSW,246,14.0,34.0,50,0.00,,---,0.00,630.00,VWS V14.01,2013-04-13 21:55:00,
2013-04-13 16:58:00,67.3,49.6,29.47,West,260,20.0,24.0,53,0.00,,---,0.00,582.00,VWS V14.01,2013-04-13 21:58:00,
2013-04-13 17:00:00,67.6,49.4,29.46,North,350,27.0,27.0,52,0.00,,---,0.00,519.00,VWS V14.01,2013-04-13 22:00:00,
2013-04-13 17:03:00,67.6,48.8,29.46,West,264,21.0,32.0,51,0.00,,---,0.00,394.00,VWS V14.01,2013-04-13 22:03:00,
2013-04-13 17:05:00,67.1,49.4,29.46,SSW,210,24.0,32.0,53,0.00,,---,0.00,385.00,VWS V14.01,2013-04-13 22:05:00,
2013-04-13 17:08:00,66.6,49.0,29.46,West,271,21.0,30.0,53,0.00,,---,0.00,324.00,VWS V14.01,2013-04-13 22:08:00,
2013-04-13 17:10:00,66.3,48.7,29.46,WSW,250,29.0,31.0,53,0.00,,---,0.00,169.00,VWS V14.01,2013-04-13 22:10:00,
2013-04-13 17:13:00,66.1,49.0,29.46,SSW,202,10.0,31.0,54,0.00,,---,0.00,181.00,VWS V14.01,2013-04-13 22:13:00,
2013-04-13 17:15:00,66.3,49.2,29.45,NNW,339,25.0,31.0,54,0.00,,---,0.00,442.00,VWS V14.01,2013-04-13 22:15:00,
2013-04-13 17:18:00,66.4,49.8,29.45,NNW,335,12.0,26.0,55,0.00,,---,0.00,487.00,VWS V14.01,2013-04-13 22:18:00,
2013-04-13 17:20:00,66.9,49.2,29.45,WSW,256,22.0,26.0,53,0.00,,---,0.00,538.00,VWS V14.01,2013-04-13 22:20:00,
2013-04-13 17:23:00,67.3,49.1,29.45,West,264,29.0,29.0,52,0.00,,---,0.00,568.00,VWS V14.01,2013-04-13 22:23:00,
2013-04-13 17:25:00,67.6,49.4,29.45,WNW,302,17.0,29.0,52,0.00,,---,0.00,531.00,VWS V14.01,2013-04-13 22:25:00,
2013-04-13 17:28:00,67.6,49.4,29.45,SW,217,17.0,31.0,52,0.00,,---,0.00,516.00,VWS V14.01,2013-04-13 22:28:00,
2013-04-13 17:30:00,67.4,49.2,29.44,West,274,29.0,31.0,52,0.00,,---,0.00,155.00,VWS V14.01,2013-04-13 22:30:00,
2013-04-13 17:33:00,66.9,49.2,29.44,SSW,210,27.0,29.0,53,0.00,,---,0.00,164.00,VWS V14.01,2013-04-13 22:33:00,
2013-04-13 17:35:00,66.8,49.6,29.44,South,189,12.0,29.0,54,0.00,,---,0.00,164.00,VWS V14.01,2013-04-13 22:35:00,
2013-04-13 17:39:00,66.8,49.6,29.44,NNW,332,14.0,21.0,54,0.00,,---,0.00,370.00,VWS V14.01,2013-04-13 22:39:00,
2013-04-13 17:40:00,66.9,50.2,29.44,North,0,10.0,21.0,55,0.00,,---,0.00,315.00,VWS V14.01,2013-04-13 22:40:00,
2013-04-13 17:44:00,67.3,50.1,29.44,SSW,195,13.0,21.0,54,0.00,,---,0.00,260.00,VWS V14.01,2013-04-13 22:44:00,
2013-04-13 17:45:00,67.4,49.7,29.44,SW,226,19.0,22.0,53,0.00,,---,0.00,271.00,VWS V14.01,2013-04-13 22:45:00,
2013-04-13 17:49:00,67.6,48.8,29.44,SW,220,25.0,28.0,51,0.00,,---,0.00,250.00,VWS V14.01,2013-04-13 22:49:00,
2013-04-13 17:50:00,67.4,49.2,29.44,WSW,246,16.0,28.0,52,0.00,,---,0.00,241.00,VWS V14.01,2013-04-13 22:50:00,
2013-04-13 17:54:00,67.4,49.2,29.44,WSW,256,22.0,27.0,52,0.00,,---,0.00,274.00,VWS V14.01,2013-04-13 22:54:00,
2013-04-13 17:55:00,67.4,49.2,29.44,South,186,12.0,27.0,52,0.00,,---,0.00,253.00,VWS V14.01,2013-04-13 22:55:00,
2013-04-13 17:59:00,67.4,48.7,29.44,NNW,337,18.0,25.0,51,0.00,,---,0.00,201.00,VWS V14.01,2013-04-13 22:59:00,
2013-04-13 18:00:00,67.4,48.7,29.43,SW,232,19.0,25.0,51,0.00,,---,0.00,187.00,VWS V14.01,2013-04-13 23:00:00,
2013-04-13 18:04:00,67.1,48.4,29.43,WSW,240,13.0,26.0,51,0.00,,---,0.00,174.00,VWS V14.01,2013-04-13 23:04:00,
2013-04-13 18:05:00,67.1,48.9,29.43,SW,227,28.0,29.0,52,0.00,,---,0.00,176.00,VWS V14.01,2013-04-13 23:05:00,
2013-04-13 18:09:00,66.8,48.6,29.43,North,0,16.0,28.0,52,0.00,,---,0.00,164.00,VWS V14.01,2013-04-13 23:09:00,
2013-04-13 18:10:00,66.8,48.6,29.43,WSW,237,12.0,28.0,52,0.00,,---,0.00,162.00,VWS V14.01,2013-04-13 23:10:00,
2013-04-13 18:14:00,66.8,49.1,29.43,WSW,237,30.0,30.0,53,0.00,,---,0.00,155.00,VWS V14.01,2013-04-13 23:14:00,
2013-04-13 18:15:00,66.8,49.1,29.42,SSE,168,18.0,30.0,53,0.00,,---,0.00,160.00,VWS V14.01,2013-04-13 23:15:00,
2013-04-13 18:19:00,66.8,49.1,29.42,SW,219,12.0,24.0,53,0.00,,---,0.00,178.00,VWS V14.01,2013-04-13 23:19:00,
2013-04-13 18:20:00,66.8,49.1,29.42,WSW,243,19.0,27.0,53,0.00,,---,0.00,176.00,VWS V14.01,2013-04-13 23:20:00,
2013-04-13 18:24:00,66.9,48.7,29.42,SSW,206,27.0,29.0,52,0.00,,---,0.00,167.00,VWS V14.01,2013-04-13 23:24:00,
2013-04-13 18:25:00,67.1,48.9,29.42,WSW,250,13.0,29.0,52,0.00,,---,0.00,151.00,VWS V14.01,2013-04-13 23:25:00,
2013-04-13 18:29:00,67.1,49.4,29.42,SSW,195,25.0,29.0,53,0.00,,---,0.00,146.00,VWS V14.01,2013-04-13 23:29:00,
2013-04-13 18:34:00,67.1,49.4,29.42,SSW,193,16.0,25.0,53,0.00,,---,0.00,132.00,VWS V14.01,2013-04-13 23:34:00,
2013-04-13 18:40:00,67.1,50.4,29.42,NNW,328,17.0,25.0,55,0.00,,---,0.00,127.00,VWS V14.01,2013-04-13 23:40:00,
2013-04-13 18:45:00,67.1,50.4,29.42,West,281,12.0,21.0,55,0.00,,---,0.00,127.00,VWS V14.01,2013-04-13 23:45:00,
2013-04-13 18:50:00,67.1,50.4,29.42,SSW,198,16.0,22.0,55,0.00,,---,0.00,165.00,VWS V14.01,2013-04-13 23:50:00,
2013-04-13 18:55:00,67.3,50.6,29.42,West,268,13.0,20.0,55,0.00,,---,0.00,132.00,VWS V14.01,2013-04-13 23:55:00,
2013-04-13 19:00:00,67.3,51.1,29.42,South,176,10.0,13.0,56,0.00,,---,0.00,120.00,VWS V14.01,2013-04-14 00:00:00,
2013-04-13 19:05:00,67.1,50.9,29.42,South,174,8.0,14.0,56,0.00,,---,0.00,118.00,VWS V14.01,2013-04-14 00:05:00,
2013-04-13 19:10:00,67.1,50.4,29.42,SSW,195,9.0,16.0,55,0.00,,---,0.00,86.00,VWS V14.01,2013-04-14 00:10:00,
2013-04-13 19:15:00,67.1,50.4,29.41,West,281,12.0,16.0,55,0.00,,---,0.00,79.00,VWS V14.01,2013-04-14 00:15:00,
2013-04-13 19:20:00,66.9,50.2,29.41,WSW,248,7.0,12.0,55,0.00,,---,0.00,60.00,VWS V14.01,2013-04-14 00:20:00,
2013-04-13 19:25:00,66.9,50.2,29.41,North,349,8.0,13.0,55,0.00,,---,0.00,70.00,VWS V14.01,2013-04-14 00:25:00,
2013-04-13 19:30:00,66.8,50.1,29.40,NNW,346,8.0,12.0,55,0.00,,---,0.00,48.00,VWS V14.01,2013-04-14 00:30:00,
2013-04-13 19:36:00,66.4,50.2,29.40,North,0,7.0,10.0,56,0.00,,---,0.00,33.00,VWS V14.01,2013-04-14 00:36:00,
2013-04-13 19:40:00,66.1,50.4,29.40,South,172,7.0,10.0,57,0.00,,---,0.00,44.00,VWS V14.01,2013-04-14 00:40:00,
2013-04-13 19:41:00,66.1,50.4,29.40,NW,311,4.0,7.0,57,0.00,,---,0.00,44.00,VWS V14.01,2013-04-14 00:41:00,
2013-04-13 19:45:00,65.8,50.6,29.40,SSE,151,6.0,8.0,58,0.00,,---,0.00,30.00,VWS V14.01,2013-04-14 00:45:00,
2013-04-13 19:46:00,65.6,50.4,29.40,North,353,5.0,6.0,58,0.00,,---,0.00,30.00,VWS V14.01,2013-04-14 00:46:00,
2013-04-13 19:50:00,65.3,50.6,29.40,North,352,3.0,10.0,59,0.00,,---,0.00,21.00,VWS V14.01,2013-04-14 00:50:00,
2013-04-13 19:51:00,65.2,50.5,29.40,NNW,347,5.0,7.0,59,0.00,,---,0.00,21.00,VWS V14.01,2013-04-14 00:51:00,
2013-04-13 19:55:00,65.0,50.3,29.40,NNW,344,6.0,12.0,59,0.00,,---,0.00,16.00,VWS V14.01,2013-04-14 00:55:00,
2013-04-13 19:57:00,64.8,50.6,29.40,SSE,162,6.0,12.0,60,0.00,,---,0.00,16.00,VWS V14.01,2013-04-14 00:57:00,
2013-04-13 20:02:00,64.7,50.5,29.40,NNW,337,5.0,10.0,60,0.00,,---,0.00,11.00,VWS V14.01,2013-04-14 01:02:00,
2013-04-13 20:07:00,64.3,50.1,29.40,North,0,7.0,11.0,60,0.00,,---,0.00,0.00,VWS V14.01,2013-04-14 01:07:00,
2013-04-13 20:10:00,64.2,50.5,29.40,NW,305,6.0,11.0,61,0.00,,---,0.00,0.00,VWS V14.01,2013-04-14 01:10:00,
2013-04-13 20:12:00,64.0,50.3,29.40,North,0,9.0,9.0,61,0.00,,---,0.00,0.00,VWS V14.01,2013-04-14 01:12:00,
2013-04-13 20:15:00,63.9,50.2,29.39,NW,326,6.0,11.0,61,0.00,,---,0.00,0.00,VWS V14.01,2013-04-14 01:15:00,
2013-04-13 20:17:00,63.7,50.5,29.39,NNW,344,8.0,11.0,62,0.00,,---,0.00,0.00,VWS V14.01,2013-04-14 01:17:00,
2013-04-13 20:22:00,63.4,50.2,29.39,South,182,5.0,12.0,62,0.00,,---,0.00,0.00,VWS V14.01,2013-04-14 01:22:00,
2013-04-13 20:25:00,63.1,50.3,29.39,North,352,8.0,14.0,63,0.00,,---,0.00,0.00,VWS V14.01,2013-04-14 01:25:00,
2013-04-13 20:27:00,62.9,50.1,29.39,NNW,347,8.0,12.0,63,0.00,,---,0.00,0.00,VWS V14.01,2013-04-14 01:27:00,
2013-04-13 20:33:00,62.4,50.1,29.39,North,0,11.0,13.0,64,0.00,,---,0.00,0.00,VWS V14.01,2013-04-14 01:33:00,
2013-04-13 20:38:00,62.3,50.0,29.39,North,357,10.0,13.0,64,0.00,,---,0.00,0.00,VWS V14.01,2013-04-14 01:38:00,
2013-04-13 20:40:00,62.1,50.2,29.39,NW,315,8.0,14.0,65,0.00,,---,0.00,0.00,VWS V14.01,2013-04-14 01:40:00,
2013-04-13 20:43:00,62.1,50.2,29.39,SSE,167,11.0,13.0,65,0.00,,---,0.00,0.00,VWS V14.01,2013-04-14 01:43:00,
2013-04-13 20:45:00,62.0,50.1,29.38,SSE,155,9.0,15.0,65,0.00,,---,0.00,0.00,VWS V14.01,2013-04-14 01:45:00,
2013-04-13 20:48:00,62.0,49.7,29.38,SSW,195,8.0,13.0,64,0.00,,---,0.00,0.00,VWS V14.01,2013-04-14 01:48:00,
2013-04-13 20:50:00,62.0,49.3,29.38,WNW,291,7.0,13.0,63,0.00,,---,0.00,0.00,VWS V14.01,2013-04-14 01:50:00,
2013-04-13 20:53:00,62.1,49.4,29.38,NW,308,10.0,12.0,63,0.00,,---,0.00,0.00,VWS V14.01,2013-04-14 01:53:00,
2013-04-13 20:55:00,62.3,49.1,29.38,West,271,8.0,14.0,62,0.00,,---,0.00,0.00,VWS V14.01,2013-04-14 01:55:00,
2013-04-13 20:58:00,62.3,49.1,29.38,NW,313,12.0,12.0,62,0.00,,---,0.00,0.00,VWS V14.01,2013-04-14 01:58:00,
2013-04-13 21:00:00,62.1,49.4,29.38,NNW,347,12.0,13.0,63,0.00,,---,0.00,0.00,VWS V14.01,2013-04-14 02:00:00,
2013-04-13 21:03:00,62.0,49.3,29.38,WNW,298,12.0,14.0,63,0.00,,---,0.00,0.00,VWS V14.01,2013-04-14 02:03:00,
2013-04-13 21:08:00,62.3,48.7,29.38,West,264,12.0,18.0,61,0.00,,---,0.00,0.00,VWS V14.01,2013-04-14 02:08:00,
2013-04-13 21:10:00,62.4,48.3,29.38,SSW,206,11.0,18.0,60,0.00,,---,0.00,0.00,VWS V14.01,2013-04-14 02:10:00,
2013-04-13 21:13:00,62.6,48.1,29.38,WNW,284,11.0,20.0,59,0.00,,---,0.00,0.00,VWS V14.01,2013-04-14 02:13:00,
2013-04-13 21:15:00,62.9,47.9,29.37,NNW,343,18.0,22.0,58,0.00,,---,0.00,0.00,VWS V14.01,2013-04-14 02:15:00,
2013-04-13 21:18:00,63.1,47.6,29.37,WSW,256,13.0,20.0,57,0.00,,---,0.00,0.00,VWS V14.01,2013-04-14 02:18:00,
2013-04-13 21:20:00,63.1,47.2,29.37,NW,306,14.0,20.0,56,0.00,,---,0.00,0.00,VWS V14.01,2013-04-14 02:20:00,
2013-04-13 21:23:00,63.2,46.8,29.37,NW,322,16.0,20.0,55,0.00,,---,0.00,0.00,VWS V14.01,2013-04-14 02:23:00,
2013-04-13 21:25:00,63.4,47.0,29.37,South,189,14.0,20.0,55,0.00,,---,0.00,0.00,VWS V14.01,2013-04-14 02:25:00,
2013-04-13 21:29:00,63.4,46.5,29.37,SE,137,22.0,24.0,54,0.00,,---,0.00,0.00,VWS V14.01,2013-04-14 02:29:00,
2013-04-13 21:30:00,63.4,46.5,29.36,NNW,330,18.0,24.0,54,0.00,,---,0.00,0.00,VWS V14.01,2013-04-14 02:30:00,
2013-04-13 21:34:00,63.5,46.1,29.36,North,354,12.0,24.0,53,0.00,,---,0.00,0.00,VWS V14.01,2013-04-14 02:34:00,
2013-04-13 21:35:00,63.5,46.1,29.36,NW,322,16.0,24.0,53,0.00,,---,0.00,0.00,VWS V14.01,2013-04-14 02:35:00,
2013-04-13 21:39:00,63.5,46.1,29.36,West,281,27.0,27.0,53,0.00,,---,0.00,0.00,VWS V14.01,2013-04-14 02:39:00,
2013-04-13 21:40:00,63.5,46.6,29.36,WSW,247,16.0,27.0,54,0.00,,---,0.00,0.00,VWS V14.01,2013-04-14 02:40:00,
2013-04-13 21:44:00,63.7,46.3,29.36,NW,318,17.0,28.0,53,0.00,,---,0.00,0.00,VWS V14.01,2013-04-14 02:44:00,
2013-04-13 21:45:00,63.7,46.3,29.35,WNW,292,17.0,28.0,53,0.00,,---,0.00,0.00,VWS V14.01,2013-04-14 02:45:00,
2013-04-13 21:49:00,63.9,46.5,29.35,WSW,258,24.0,30.0,53,0.00,,---,0.00,0.00,VWS V14.01,2013-04-14 02:49:00,
2013-04-13 21:50:00,63.9,46.5,29.35,SSW,212,26.0,30.0,53,0.00,,---,0.00,0.00,VWS V14.01,2013-04-14 02:50:00,
2013-04-13 21:54:00,63.9,47.0,29.35,SSE,168,19.0,29.0,54,0.00,,---,0.00,0.00,VWS V14.01,2013-04-14 02:54:00,
2013-04-13 21:55:00,63.9,47.0,29.35,NNW,329,17.0,29.0,54,0.00,,---,0.00,0.00,VWS V14.01,2013-04-14 02:55:00,
2013-04-13 21:59:00,63.9,47.0,29.35,SW,236,16.0,27.0,54,0.00,,---,0.00,0.00,VWS V14.01,2013-04-14 02:59:00,
2013-04-13 22:00:00,63.9,47.0,29.35,NW,316,19.0,32.0,54,0.00,,---,0.00,0.00,VWS V14.01,2013-04-14 03:00:00,
2013-04-13 22:04:00,64.2,46.7,29.35,SSW,203,17.0,35.0,53,0.00,,---,0.00,0.00,VWS V14.01,2013-04-14 03:04:00,
2013-04-13 22:05:00,64.2,47.2,29.35,South,172,19.0,35.0,54,0.00,,---,0.00,0.00,VWS V14.01,2013-04-14 03:05:00,
2013-04-13 22:09:00,64.0,46.5,29.35,SSW,200,30.0,30.0,53,0.00,,---,0.00,0.00,VWS V14.01,2013-04-14 03:09:00,
2013-04-13 22:10:00,64.0,46.5,29.35,WSW,247,27.0,31.0,53,0.00,,---,0.00,0.00,VWS V14.01,2013-04-14 03:10:00,
2013-04-13 22:14:00,64.0,46.5,29.35,NNW,346,18.0,36.0,53,0.00,,---,0.00,0.00,VWS V14.01,2013-04-14 03:14:00,
2013-04-13 22:15:00,64.0,46.5,29.35,West,260,17.0,36.0,53,0.00,,---,0.00,0.00,VWS V14.01,2013-04-14 03:15:00,
2013-04-13 22:19:00,63.9,46.5,29.35,West,277,29.0,32.0,53,0.00,,---,0.00,0.00,VWS V14.01,2013-04-14 03:19:00,
2013-04-13 22:20:00,64.0,46.5,29.35,South,186,24.0,39.0,53,0.00,,---,0.00,0.00,VWS V14.01,2013-04-14 03:20:00,
2013-04-13 22:24:00,64.0,46.5,29.35,South,175,20.0,30.0,53,0.00,,---,0.00,0.00,VWS V14.01,2013-04-14 03:24:00,
2013-04-13 22:25:00,64.0,46.5,29.35,WSW,258,26.0,35.0,53,0.00,,---,0.00,0.00,VWS V14.01,2013-04-14 03:25:00,
2013-04-13 22:29:00,64.0,46.5,29.35,WSW,253,25.0,30.0,53,0.00,,---,0.00,0.00,VWS V14.01,2013-04-14 03:29:00,
2013-04-13 22:30:00,64.0,46.5,29.34,SSW,196,24.0,34.0,53,0.00,,---,0.00,0.00,VWS V14.01,2013-04-14 03:30:00,
2013-04-13 22:34:00,64.0,46.5,29.34,WSW,247,19.0,32.0,53,0.00,,---,0.00,0.00,VWS V14.01,2013-04-14 03:34:00,
2013-04-13 22:35:00,63.9,46.5,29.34,SSW,196,21.0,32.0,53,0.00,,---,0.00,0.00,VWS V14.01,2013-04-14 03:35:00,
2013-04-13 22:39:00,63.9,46.5,29.34,North,0,25.0,33.0,53,0.00,,---,0.00,0.00,VWS V14.01,2013-04-14 03:39:00,
2013-04-13 22:40:00,63.9,46.5,29.34,SW,220,19.0,33.0,53,0.00,,---,0.00,0.00,VWS V14.01,2013-04-14 03:40:00,
2013-04-13 22:45:00,63.7,46.8,29.34,WNW,302,24.0,31.0,54,0.00,,---,0.00,0.00,VWS V14.01,2013-04-14 03:45:00,
2013-04-13 22:50:00,63.7,46.8,29.34,WSW,253,26.0,34.0,54,0.00,,---,0.00,0.00,VWS V14.01,2013-04-14 03:50:00,
2013-04-13 22:55:00,63.5,47.1,29.34,WNW,288,21.0,32.0,55,0.00,,---,0.00,0.00,VWS V14.01,2013-04-14 03:55:00,
2013-04-13 23:00:00,63.2,46.8,29.34,SSW,202,21.0,30.0,55,0.00,,---,0.00,0.00,VWS V14.01,2013-04-14 04:00:00,
2013-04-13 23:01:00,63.2,47.3,29.34,South,191,26.0,26.0,56,0.00,,---,0.00,0.00,VWS V14.01,2013-04-14 04:01:00,
2013-04-13 23:05:00,63.1,46.7,29.34,SW,224,21.0,33.0,55,0.00,,---,0.00,0.00,VWS V14.01,2013-04-14 04:05:00,
2013-04-13 23:06:00,63.1,46.7,29.34,SW,236,18.0,32.0,55,0.00,,---,0.00,0.00,VWS V14.01,2013-04-14 04:06:00,
2013-04-13 23:10:00,63.2,46.8,29.34,South,179,19.0,35.0,55,0.00,,---,0.00,0.00,VWS V14.01,2013-04-14 04:10:00,
2013-04-13 23:11:00,63.2,46.8,29.34,SW,223,26.0,26.0,55,0.00,,---,0.00,0.00,VWS V14.01,2013-04-14 04:11:00,
2013-04-13 23:15:00,63.1,46.7,29.33,SSE,165,25.0,35.0,55,0.00,,---,0.00,0.00,VWS V14.01,2013-04-14 04:15:00,
2013-04-13 23:16:00,62.9,46.5,29.33,South,181,25.0,27.0,55,0.00,,---,0.00,0.00,VWS V14.01,2013-04-14 04:16:00,
2013-04-13 23:20:00,62.7,46.3,29.33,SSE,168,24.0,30.0,55,0.00,,---,0.00,0.00,VWS V14.01,2013-04-14 04:20:00,
2013-04-13 23:22:00,62.7,46.3,29.33,South,178,24.0,29.0,55,0.00,,---,0.00,0.00,VWS V14.01,2013-04-14 04:22:00,
2013-04-13 23:25:00,62.6,46.7,29.33,WSW,239,19.0,29.0,56,0.00,,---,0.00,0.00,VWS V14.01,2013-04-14 04:25:00,
2013-04-13 23:27:00,62.6,46.7,29.33,South,191,13.0,21.0,56,0.00,,---,0.00,0.00,VWS V14.01,2013-04-14 04:27:00,
2013-04-13 23:30:00,62.3,46.9,29.32,WNW,301,21.0,29.0,57,0.00,,---,0.00,0.00,VWS V14.01,2013-04-14 04:30:00,
2013-04-13 23:32:00,62.3,46.9,29.32,NNW,342,20.0,22.0,57,0.00,,---,0.00,0.00,VWS V14.01,2013-04-14 04:32:00,
2013-04-13 23:35:00,62.3,46.4,29.32,WSW,246,20.0,42.0,56,0.00,,---,0.00,0.00,VWS V14.01,2013-04-14 04:35:00,
2013-04-13 23:37:00,62.3,46.4,29.32,WSW,254,20.0,24.0,56,0.00,,---,0.00,0.00,VWS V14.01,2013-04-14 04:37:00,
2013-04-13 23:40:00,62.0,46.6,29.32,WNW,296,13.0,24.0,57,0.00,,---,0.00,0.00,VWS V14.01,2013-04-14 04:40:00,
2013-04-13 23:42:00,61.8,46.4,29.32,ESE,117,24.0,24.0,57,0.00,,---,0.00,0.00,VWS V14.01,2013-04-14 04:42:00,
2013-04-13 23:45:00,61.8,46.4,29.31,SSW,210,21.0,33.0,57,0.00,,---,0.00,0.00,VWS V14.01,2013-04-14 04:45:00,
2013-04-13 23:47:00,61.8,46.0,29.31,SSW,195,19.0,32.0,56,0.00,,---,0.00,0.00,VWS V14.01,2013-04-14 04:47:00,
2013-04-13 23:50:00,62.0,46.1,29.31,WSW,254,21.0,35.0,56,0.00,,---,0.00,0.00,VWS V14.01,2013-04-14 04:50:00,
2013-04-13 23:52:00,62.1,45.8,29.31,NNW,346,25.0,31.0,55,0.00,,---,0.00,0.00,VWS V14.01,2013-04-14 04:52:00,
2013-04-13 23:55:00,62.1,45.8,29.31,SW,234,19.0,32.0,55,0.00,,---,0.00,0.00,VWS V14.01,2013-04-14 04:55:00,
2013-04-13 23:57:00,62.1,45.3,29.31,WSW,247,14.0,38.0,54,0.00,,---,0.00,0.00,VWS V14.01,2013-04-14 04:57:00,